createdAt,value
2022-11-29T00:01:04.879Z,60.75
2022-11-29T00:03:33.106Z,60.58
2022-11-29T00:06:06.419Z,55.28
2022-11-29T00:08:34.478Z,58.58
2022-11-29T00:11:08.276Z,57.88
2022-11-29T00:13:36.905Z,59.78
2022-11-29T00:16:05.879Z,60.47
2022-11-29T00:18:34.111Z,60.05
2022-11-29T00:21:06.265Z,62.42
2022-11-29T00:23:34.515Z,61.13
2022-11-29T00:26:05.483Z,60.80
2022-11-29T00:28:35.991Z,61.85
2022-11-29T00:31:15.167Z,59.63
2022-11-29T00:33:43.249Z,58.90
2022-11-29T00:36:11.476Z,60.00
2022-11-29T00:38:39.853Z,64.70
2022-11-29T00:41:08.526Z,62.50
2022-11-29T00:43:38.318Z,62.95
2022-11-29T00:46:07.392Z,62.60
2022-11-29T00:48:35.705Z,66.50
2022-11-29T00:51:04.400Z,63.78
2022-11-29T00:53:33.180Z,61.28
2022-11-29T00:56:01.259Z,57.53
2022-11-29T00:58:29.373Z,60.22
2022-11-29T01:00:58.809Z,58.65
2022-11-29T01:03:27.124Z,54.25
2022-11-29T01:06:01.966Z,58.88
2022-11-29T01:08:30.075Z,57.28
2022-11-29T01:11:07.789Z,56.88
2022-11-29T01:13:36.572Z,59.75
2022-11-29T01:16:07.233Z,62.13
2022-11-29T01:18:35.570Z,66.65
2022-11-29T01:21:06.120Z,64.30
2022-11-29T01:23:35.087Z,61.03
2022-11-29T01:26:05.175Z,62.85
2022-11-29T01:28:33.161Z,59.55
2022-11-29T01:31:01.174Z,58.85
2022-11-29T01:33:30.591Z,58.42
2022-11-29T01:35:58.596Z,59.17
2022-11-29T01:38:26.661Z,58.05
2022-11-29T01:40:59.652Z,56.05
2022-11-29T01:43:28.238Z,57.65
2022-11-29T01:45:56.704Z,57.67
2022-11-29T01:48:26.988Z,60.58
2022-11-29T01:51:01.249Z,61.17
2022-11-29T01:53:30.056Z,58.17
2022-11-29T01:56:05.641Z,61.17
2022-11-29T01:58:34.469Z,60.20
2022-11-29T02:01:03.119Z,59.13
2022-11-29T02:03:31.127Z,56.75
2022-11-29T02:06:02.115Z,58.08
2022-11-29T02:08:37.595Z,57.10
2022-11-29T02:11:28.903Z,56.75
2022-11-29T02:14:05.514Z,56.38
2022-11-29T02:16:44.071Z,56.08
2022-11-29T02:19:28.364Z,54.35
2022-11-29T02:22:03.048Z,54.97
2022-11-29T02:24:56.621Z,57.92
2022-11-29T02:28:05.755Z,63.33
2022-11-29T02:31:05.113Z,58.92
2022-11-29T02:33:58.010Z,58.05
2022-11-29T02:36:44.254Z,57.08
2022-11-29T02:39:52.419Z,55.55
2022-11-29T02:43:05.354Z,57.60
2022-11-29T02:45:57.309Z,56.38
2022-11-29T02:48:44.794Z,55.90
2022-11-29T02:51:20.036Z,56.78
2022-11-29T02:53:55.046Z,55.35
2022-11-29T02:56:31.101Z,56.38
2022-11-29T02:59:06.393Z,52.45
2022-11-29T03:01:41.602Z,49.92
2022-11-29T03:04:18.937Z,46.13
2022-11-29T03:06:56.716Z,47.05
2022-11-29T03:09:34.696Z,46.33
2022-11-29T03:12:12.080Z,45.85
2022-11-29T03:14:55.679Z,47.90
2022-11-29T03:17:33.206Z,46.30
2022-11-29T03:20:28.004Z,48.67
2022-11-29T03:23:20.543Z,50.67
2022-11-29T03:25:56.071Z,51.78
2022-11-29T03:28:29.562Z,52.58
2022-11-29T03:31:05.409Z,55.75
2022-11-29T03:33:46.536Z,53.05
2022-11-29T03:36:26.942Z,54.42
2022-11-29T03:38:59.575Z,55.20
2022-11-29T03:41:34.280Z,51.92
2022-11-29T03:44:08.548Z,56.90
2022-11-29T03:46:41.737Z,51.38
2022-11-29T03:49:17.401Z,55.10
2022-11-29T03:52:01.884Z,52.97
2022-11-29T03:54:38.213Z,55.30
2022-11-29T03:57:07.545Z,53.45
2022-11-29T03:59:55.936Z,50.25
2022-11-29T04:03:14.534Z,53.38
2022-11-29T04:06:09.988Z,50.53
2022-11-29T04:08:57.328Z,53.55
2022-11-29T04:11:55.934Z,49.53
2022-11-29T04:14:44.199Z,49.05
2022-11-29T04:17:42.689Z,51.17
2022-11-29T04:20:47.877Z,49.15
2022-11-29T04:23:44.865Z,49.70
2022-11-29T04:26:39.033Z,51.78
2022-11-29T04:29:21.708Z,51.67
2022-11-29T04:32:18.340Z,53.90
2022-11-29T04:35:19.051Z,54.00
2022-11-29T04:38:09.290Z,50.92
2022-11-29T04:40:55.962Z,52.63
2022-11-29T04:43:46.537Z,49.38
2022-11-29T04:46:37.381Z,48.30
2022-11-29T04:49:33.929Z,52.58
2022-11-29T04:52:24.421Z,51.10
2022-11-29T04:55:01.390Z,52.08
2022-11-29T04:57:36.396Z,53.28
2022-11-29T05:00:10.379Z,58.80
2022-11-29T05:02:49.734Z,54.17
2022-11-29T05:05:28.879Z,53.55
2022-11-29T05:08:23.038Z,53.60
2022-11-29T05:11:00.990Z,52.80
2022-11-29T05:13:40.229Z,50.85
2022-11-29T05:16:20.395Z,50.15
2022-11-29T05:19:21.801Z,52.90
2022-11-29T05:22:02.454Z,48.72
2022-11-29T05:24:47.157Z,50.22
2022-11-29T05:27:24.411Z,51.10
2022-11-29T05:29:59.633Z,52.17
2022-11-29T05:32:36.011Z,52.70
2022-11-29T05:35:33.642Z,51.85
2022-11-29T05:38:09.577Z,52.72
2022-11-29T05:40:47.195Z,53.40
2022-11-29T05:43:57.642Z,52.30
2022-11-29T05:46:32.237Z,56.38
2022-11-29T05:49:09.573Z,62.17
2022-11-29T05:51:45.949Z,59.45
2022-11-29T05:54:25.975Z,58.10
2022-11-29T05:57:04.632Z,56.40
2022-11-29T05:59:35.526Z,54.80
2022-11-29T06:02:13.551Z,58.05
2022-11-29T06:04:56.120Z,54.28
2022-11-29T06:07:30.084Z,55.85
2022-11-29T06:10:02.242Z,54.23
2022-11-29T06:12:35.042Z,54.13
2022-11-29T06:15:25.579Z,58.88
2022-11-29T06:18:11.177Z,56.20
2022-11-29T06:21:04.463Z,58.90
2022-11-29T06:24:05.982Z,59.08
2022-11-29T06:26:46.213Z,55.92
2022-11-29T06:29:37.954Z,60.45
2022-11-29T06:32:18.209Z,55.45
2022-11-29T06:34:55.570Z,56.67
2022-11-29T06:37:29.051Z,55.28
2022-11-29T06:39:57.538Z,56.15
2022-11-29T06:42:25.695Z,54.28
2022-11-29T06:44:54.168Z,55.72
2022-11-29T06:47:29.235Z,58.20
2022-11-29T06:50:03.819Z,60.08
2022-11-29T06:52:44.758Z,62.67
2022-11-29T06:55:20.874Z,66.60
2022-11-29T06:58:02.480Z,104.57
2022-11-29T07:00:41.714Z,66.28
2022-11-29T07:03:42.167Z,67.47
2022-11-29T07:06:22.176Z,65.82
2022-11-29T07:08:57.569Z,70.45
2022-11-29T07:11:25.997Z,72.70
2022-11-29T07:13:54.683Z,60.47
2022-11-29T07:16:29.033Z,60.88
2022-11-29T07:19:06.261Z,55.28
2022-11-29T07:21:47.194Z,58.67
2022-11-29T07:24:33.990Z,58.67
2022-11-29T07:27:10.015Z,53.88
2022-11-29T07:29:48.938Z,51.33
2022-11-29T07:32:26.600Z,54.15
2022-11-29T07:35:04.937Z,56.42
2022-11-29T07:37:39.558Z,55.40
2022-11-29T07:40:16.468Z,53.72
2022-11-29T07:42:58.046Z,52.60
2022-11-29T07:45:29.495Z,54.83
2022-11-29T07:47:57.522Z,53.50
2022-11-29T07:50:27.220Z,58.65
2022-11-29T07:52:56.551Z,65.32
2022-11-29T07:55:27.626Z,55.60
2022-11-29T07:57:55.795Z,52.10
2022-11-29T08:00:24.384Z,50.13
2022-11-29T08:02:52.718Z,49.20
2022-11-29T08:05:20.856Z,46.75
2022-11-29T08:07:49.426Z,47.30
2022-11-29T08:10:18.285Z,49.03
2022-11-29T08:12:50.877Z,46.60
2022-11-29T08:15:19.857Z,50.03
2022-11-29T08:17:48.307Z,52.58
2022-11-29T08:20:17.532Z,49.85
2022-11-29T08:22:45.518Z,48.80
2022-11-29T08:25:13.767Z,50.42
2022-11-29T08:27:41.756Z,49.72
2022-11-29T08:30:11.961Z,49.03
2022-11-29T08:32:39.970Z,46.40
2022-11-29T08:35:08.368Z,45.45
2022-11-29T08:37:37.012Z,42.78
2022-11-29T08:40:05.477Z,42.13
2022-11-29T08:42:33.730Z,40.70
2022-11-29T08:45:01.774Z,39.75
2022-11-29T08:47:36.983Z,40.90
2022-11-29T08:50:10.175Z,40.50
2022-11-29T08:52:59.054Z,38.97
2022-11-29T08:55:29.327Z,39.95
2022-11-29T08:58:03.024Z,45.65
2022-11-29T09:00:31.135Z,45.03
2022-11-29T09:03:20.607Z,41.42
2022-11-29T09:05:48.992Z,37.63
2022-11-29T09:08:17.372Z,35.45
2022-11-29T09:10:45.686Z,35.90
2022-11-29T09:13:13.776Z,36.53
2022-11-29T09:15:43.639Z,35.88
2022-11-29T09:18:13.159Z,33.17
2022-11-29T09:20:43.930Z,32.55
2022-11-29T09:23:12.787Z,34.67
2022-11-29T09:25:40.847Z,36.35
2022-11-29T09:28:08.819Z,34.47
2022-11-29T09:30:38.157Z,33.88
2022-11-29T09:33:06.275Z,32.20
2022-11-29T09:35:36.049Z,30.95
2022-11-29T09:38:04.259Z,30.45
2022-11-29T09:40:38.673Z,32.67
2022-11-29T09:43:23.034Z,27.38
2022-11-29T09:45:57.296Z,29.80
2022-11-29T09:48:53.471Z,28.65
2022-11-29T09:51:29.445Z,27.02
2022-11-29T09:54:14.474Z,27.83
2022-11-29T09:56:45.454Z,25.35
2022-11-29T09:59:18.541Z,25.40
2022-11-29T10:01:53.183Z,25.08
2022-11-29T10:04:26.848Z,23.25
2022-11-29T10:07:03.013Z,22.73
2022-11-29T10:09:34.984Z,28.67
2022-11-29T10:12:12.904Z,23.75
2022-11-29T10:14:47.392Z,24.42
2022-11-29T10:17:27.458Z,22.95
2022-11-29T10:20:00.742Z,20.55
2022-11-29T10:22:39.557Z,21.55
2022-11-29T10:25:10.455Z,20.25
2022-11-29T10:27:41.663Z,22.05
2022-11-29T10:30:16.173Z,21.70
2022-11-29T10:32:46.627Z,25.90
2022-11-29T10:35:16.734Z,33.88
2022-11-29T10:38:07.628Z,18.27
2022-11-29T10:40:38.852Z,28.70
2022-11-29T10:43:06.987Z,22.08
2022-11-29T10:45:39.075Z,19.67
2022-11-29T10:48:11.816Z,32.22
2022-11-29T10:50:42.815Z,21.88
2022-11-29T10:53:14.893Z,21.88
2022-11-29T10:55:46.883Z,17.25
2022-11-29T10:58:22.074Z,20.92
2022-11-29T11:00:56.431Z,18.38
2022-11-29T11:03:32.302Z,19.63
2022-11-29T11:06:03.717Z,18.45
2022-11-29T11:08:35.008Z,19.13
2022-11-29T11:11:05.067Z,24.35
2022-11-29T11:13:34.095Z,20.17
2022-11-29T11:16:12.147Z,21.88
2022-11-29T11:18:40.285Z,19.25
2022-11-29T11:21:11.935Z,23.08
2022-11-29T11:23:47.945Z,17.95
2022-11-29T11:26:16.373Z,19.27
2022-11-29T11:28:50.829Z,19.50
2022-11-29T11:31:28.368Z,18.70
2022-11-29T11:33:57.184Z,33.97
2022-11-29T11:36:27.430Z,18.00
2022-11-29T11:38:59.595Z,32.00
2022-11-29T11:41:44.622Z,29.70
2022-11-29T11:44:46.739Z,23.52
2022-11-29T11:47:19.359Z,26.48
2022-11-29T11:49:50.185Z,17.55
2022-11-29T11:52:22.940Z,16.33
2022-11-29T11:54:57.174Z,19.27
2022-11-29T11:57:27.466Z,14.90
2022-11-29T12:00:00.716Z,24.38
2022-11-29T12:02:38.838Z,23.92
2022-11-29T12:05:14.449Z,17.13
2022-11-29T12:10:40.973Z,16.23
2022-11-29T12:13:19.406Z,15.48
2022-11-29T12:15:50.858Z,26.00
2022-11-29T12:18:25.937Z,18.85
2022-11-29T12:23:32.310Z,16.80
2022-11-29T12:26:05.763Z,19.10
2022-11-29T12:28:36.716Z,21.08
2022-11-29T12:31:17.544Z,29.33
2022-11-29T12:33:51.460Z,19.77
2022-11-29T12:36:30.177Z,30.40
2022-11-29T12:39:19.447Z,60.17
2022-11-29T12:41:54.474Z,86.55
2022-11-29T12:44:33.580Z,30.50
2022-11-29T12:50:08.573Z,16.23
2022-11-29T12:52:47.283Z,15.05
2022-11-29T12:55:24.288Z,14.75
2022-11-29T12:58:03.222Z,48.63
2022-11-29T13:00:44.283Z,452.98
2022-11-29T13:03:22.436Z,488.08
2022-11-29T13:05:58.809Z,115.45
2022-11-29T13:08:48.006Z,295.80
2022-11-29T13:11:23.091Z,142.55
2022-11-29T13:14:13.782Z,35.90
2022-11-29T13:16:53.695Z,35.90
2022-11-29T13:19:30.834Z,47.67
2022-11-29T13:22:07.532Z,58.45
2022-11-29T13:24:43.089Z,38.58
2022-11-29T13:27:17.114Z,30.10
2022-11-29T13:29:47.383Z,28.50
2022-11-29T13:32:30.906Z,26.88
2022-11-29T13:35:04.257Z,15.07
2022-11-29T13:37:36.973Z,14.45
2022-11-29T13:40:18.863Z,14.38
2022-11-29T13:42:53.468Z,15.18
2022-11-29T13:45:29.665Z,15.30
2022-11-29T13:48:00.415Z,16.48
2022-11-29T13:50:43.679Z,27.98
2022-11-29T13:53:17.714Z,19.02
2022-11-29T13:55:48.798Z,24.93
2022-11-29T13:58:38.231Z,24.60
2022-11-29T14:01:12.776Z,20.15
2022-11-29T14:03:42.412Z,20.35
2022-11-29T14:06:14.137Z,20.45
2022-11-29T14:09:22.439Z,19.17
2022-11-29T14:11:58.986Z,22.88
2022-11-29T14:14:31.470Z,23.23
2022-11-29T14:17:03.133Z,22.13
2022-11-29T14:19:34.170Z,22.52
2022-11-29T14:22:23.396Z,22.45
2022-11-29T14:25:50.476Z,20.52
2022-11-29T14:28:32.534Z,25.00
2022-11-29T14:31:02.554Z,23.33
2022-11-29T14:33:58.019Z,27.35
2022-11-29T14:36:39.568Z,26.42
2022-11-29T14:39:36.480Z,25.92
2022-11-29T14:42:14.797Z,30.13
2022-11-29T14:44:51.119Z,54.13
2022-11-29T14:47:29.787Z,54.72
2022-11-29T14:50:01.153Z,51.90
2022-11-29T14:52:34.760Z,52.55
2022-11-29T14:55:06.676Z,43.50
2022-11-29T14:57:53.833Z,36.25
2022-11-29T15:00:23.531Z,35.17
2022-11-29T15:02:54.540Z,36.40
2022-11-29T15:05:30.600Z,38.25
2022-11-29T15:08:09.468Z,36.08
2022-11-29T15:10:41.477Z,33.13
2022-11-29T15:13:13.264Z,37.63
2022-11-29T15:16:05.748Z,33.47
2022-11-29T15:19:07.138Z,35.00
2022-11-29T15:21:45.650Z,36.80
2022-11-29T15:24:15.273Z,31.92
2022-11-29T15:26:56.655Z,30.48
2022-11-29T15:29:25.387Z,30.90
2022-11-29T15:31:55.846Z,42.47
2022-11-29T15:34:31.618Z,37.55
2022-11-29T15:37:01.913Z,28.52
2022-11-29T15:39:33.979Z,30.23
2022-11-29T15:42:03.857Z,32.35
2022-11-29T15:44:33.837Z,33.85
2022-11-29T15:47:21.810Z,37.92
2022-11-29T15:49:49.973Z,44.30
2022-11-29T15:52:25.882Z,36.10
2022-11-29T15:54:58.191Z,32.95
2022-11-29T15:57:30.146Z,30.45
2022-11-29T16:00:02.279Z,25.20
2022-11-29T16:02:33.769Z,22.70
2022-11-29T16:05:09.703Z,24.25
2022-11-29T16:07:40.822Z,24.50
2022-11-29T16:10:15.832Z,20.80
2022-11-29T16:15:28.349Z,23.08
2022-11-29T16:17:56.517Z,24.17
2022-11-29T16:20:27.033Z,22.95
2022-11-29T16:23:20.065Z,28.38
2022-11-29T16:26:00.854Z,28.63
2022-11-29T16:28:32.860Z,51.72
2022-11-29T16:31:01.098Z,64.18
2022-11-29T16:33:29.419Z,64.50
2022-11-29T16:36:12.555Z,47.30
2022-11-29T16:38:47.782Z,27.77
2022-11-29T16:41:25.128Z,24.20
2022-11-29T16:43:56.211Z,24.33
2022-11-29T16:46:30.536Z,21.58
2022-11-29T16:49:00.842Z,23.33
2022-11-29T16:51:37.720Z,26.75
2022-11-29T16:54:24.743Z,28.20
2022-11-29T16:56:54.347Z,27.42
2022-11-29T16:59:27.200Z,25.13
2022-11-29T17:01:56.341Z,30.00
2022-11-29T17:04:25.319Z,60.72
2022-11-29T17:06:54.342Z,37.72
2022-11-29T17:09:26.818Z,26.77
2022-11-29T17:11:55.447Z,30.48
2022-11-29T17:14:23.596Z,26.80
2022-11-29T17:16:52.176Z,27.55
2022-11-29T17:19:23.851Z,27.67
2022-11-29T17:21:52.841Z,26.50
2022-11-29T17:24:22.826Z,28.63
2022-11-29T17:26:52.802Z,31.75
2022-11-29T17:29:20.904Z,30.02
2022-11-29T17:31:50.464Z,33.63
2022-11-29T17:34:18.923Z,28.63
2022-11-29T17:36:47.004Z,26.00
2022-11-29T17:39:15.845Z,25.08
2022-11-29T17:41:43.884Z,26.65
2022-11-29T17:44:13.900Z,26.05
2022-11-29T17:46:41.906Z,26.08
2022-11-29T17:49:11.315Z,25.33
2022-11-29T17:51:51.701Z,28.00
2022-11-29T17:54:20.974Z,34.15
2022-11-29T17:56:49.293Z,33.38
2022-11-29T17:59:18.767Z,38.28
2022-11-29T18:01:48.146Z,30.00
2022-11-29T18:04:16.693Z,28.52
2022-11-29T18:06:49.697Z,28.80
2022-11-29T18:09:19.455Z,30.13
2022-11-29T18:11:49.697Z,30.42
2022-11-29T18:14:22.770Z,28.27
2022-11-29T18:16:51.206Z,27.45
2022-11-29T18:19:23.040Z,26.90
2022-11-29T18:21:51.973Z,26.08
2022-11-29T18:24:20.239Z,26.27
2022-11-29T18:26:48.478Z,27.40
2022-11-29T18:29:16.619Z,27.27
2022-11-29T18:31:47.169Z,30.55
2022-11-29T18:34:15.823Z,30.13
2022-11-29T18:36:45.412Z,32.22
2022-11-29T18:39:15.836Z,34.58
2022-11-29T18:41:46.138Z,33.45
2022-11-29T18:44:15.863Z,31.10
2022-11-29T18:46:46.451Z,31.63
2022-11-29T18:49:15.875Z,31.50
2022-11-29T18:51:45.767Z,29.38
2022-11-29T18:54:14.899Z,29.70
2022-11-29T18:56:43.951Z,34.05
2022-11-29T18:59:14.353Z,41.80
2022-11-29T19:01:43.120Z,55.88
2022-11-29T19:04:14.834Z,55.47
2022-11-29T19:06:43.210Z,45.95
2022-11-29T19:09:14.496Z,37.60
2022-11-29T19:11:42.592Z,32.80
2022-11-29T19:14:13.106Z,42.10
2022-11-29T19:16:43.282Z,52.35
2022-11-29T19:19:13.169Z,38.55
2022-11-29T19:21:41.873Z,38.33
2022-11-29T19:24:15.123Z,41.35
2022-11-29T19:26:45.547Z,43.28
2022-11-29T19:29:14.361Z,35.60
2022-11-29T19:31:44.072Z,32.42
2022-11-29T19:34:13.560Z,31.42
2022-11-29T19:36:44.505Z,35.20
2022-11-29T19:39:14.059Z,41.40
2022-11-29T19:41:44.016Z,38.40
2022-11-29T19:44:12.618Z,35.45
2022-11-29T19:46:42.634Z,31.73
2022-11-29T19:49:11.215Z,30.88
2022-11-29T19:51:40.635Z,28.00
2022-11-29T19:54:10.255Z,26.73
2022-11-29T19:56:39.393Z,29.17
2022-11-29T19:59:08.772Z,29.98
2022-11-29T20:01:41.439Z,30.38
2022-11-29T20:04:12.288Z,32.13
2022-11-29T20:06:42.336Z,30.48
2022-11-29T20:09:10.800Z,28.45
2022-11-29T20:11:38.993Z,28.33
2022-11-29T20:14:08.886Z,28.70
2022-11-29T20:16:39.187Z,26.08
2022-11-29T20:19:11.020Z,30.05
2022-11-29T20:21:44.080Z,29.88
2022-11-29T20:24:14.476Z,31.83
2022-11-29T20:26:45.432Z,33.85
2022-11-29T20:29:14.830Z,33.33
2022-11-29T20:31:49.560Z,33.95
2022-11-29T20:34:19.060Z,33.28
2022-11-29T20:37:16.015Z,32.47
2022-11-29T20:39:51.120Z,30.88
2022-11-29T20:42:43.994Z,32.80
2022-11-29T20:45:14.004Z,35.70
2022-11-29T20:47:50.321Z,34.25
2022-11-29T20:50:23.232Z,33.47
2022-11-29T20:53:03.802Z,53.83
2022-11-29T20:55:31.891Z,43.63
2022-11-29T20:57:59.965Z,32.38
2022-11-29T21:00:28.025Z,35.45
2022-11-29T21:02:56.052Z,33.97
2022-11-29T21:05:24.077Z,34.22
2022-11-29T21:07:53.551Z,34.55
2022-11-29T21:10:22.042Z,36.88
2022-11-29T21:12:50.767Z,35.88
2022-11-29T21:15:19.851Z,35.05
2022-11-29T21:17:48.312Z,43.95
2022-11-29T21:20:19.670Z,40.42
2022-11-29T21:22:55.254Z,37.38
2022-11-29T21:25:32.594Z,35.08
2022-11-29T21:28:02.208Z,41.92
2022-11-29T21:30:30.547Z,39.05
2022-11-29T21:32:59.136Z,39.08
2022-11-29T21:35:27.356Z,35.75
2022-11-29T21:38:00.985Z,31.95
2022-11-29T21:40:29.537Z,33.67
2022-11-29T21:42:57.624Z,32.58
2022-11-29T21:45:25.750Z,33.28
2022-11-29T21:47:53.741Z,29.55
2022-11-29T21:50:21.775Z,32.00
2022-11-29T21:52:52.465Z,31.85
2022-11-29T21:55:21.920Z,33.85
2022-11-29T21:57:49.901Z,34.53
2022-11-29T22:00:18.878Z,34.55
2022-11-29T22:02:46.920Z,37.17
2022-11-29T22:05:15.094Z,42.25
2022-11-29T22:07:44.346Z,39.95
2022-11-29T22:10:13.600Z,38.33
2022-11-29T22:12:51.843Z,40.70
2022-11-29T22:15:24.767Z,39.88
2022-11-29T22:17:53.467Z,36.05
2022-11-29T22:20:21.657Z,30.88
2022-11-29T22:22:50.070Z,31.30
2022-11-29T22:25:18.186Z,31.17
2022-11-29T22:27:50.508Z,29.80
2022-11-29T22:30:19.070Z,30.92
2022-11-29T22:32:47.094Z,30.08
2022-11-29T22:35:15.276Z,30.40
2022-11-29T22:37:43.297Z,29.13
2022-11-29T22:40:11.979Z,31.52
2022-11-29T22:42:41.425Z,29.77
2022-11-29T22:45:11.950Z,30.88
2022-11-29T22:47:39.966Z,32.63
2022-11-29T22:50:08.727Z,34.33
2022-11-29T22:52:36.785Z,34.13
2022-11-29T22:55:05.461Z,33.80
2022-11-29T22:57:33.690Z,32.58
2022-11-29T23:00:01.725Z,33.75
2022-11-29T23:02:31.156Z,33.90
2022-11-29T23:04:59.277Z,32.45
2022-11-29T23:07:27.358Z,34.53
2022-11-29T23:09:56.262Z,34.25
2022-11-29T23:12:24.291Z,34.58
2022-11-29T23:14:56.387Z,34.10
2022-11-29T23:17:24.698Z,35.17
2022-11-29T23:19:54.212Z,35.95
2022-11-29T23:22:22.332Z,39.42
2022-11-29T23:24:50.389Z,36.25
2022-11-29T23:27:18.508Z,37.47
2022-11-29T23:29:46.601Z,35.17
2022-11-29T23:32:14.557Z,36.30
2022-11-29T23:34:42.544Z,35.13
2022-11-29T23:37:11.976Z,32.97
2022-11-29T23:39:40.039Z,32.10
2022-11-29T23:42:08.095Z,32.47
2022-11-29T23:44:36.177Z,34.17
2022-11-29T23:47:04.172Z,33.47
2022-11-29T23:49:35.344Z,36.22
2022-11-29T23:52:03.401Z,34.92
2022-11-29T23:54:32.838Z,34.70
2022-11-29T23:57:00.919Z,34.70
2022-11-29T23:59:29.019Z,35.33
